sensor_id;sensor_type;location;lat;lon;timestamp;P1;durP1;ratioP1;P2;durP2;ratioP2
38683;SDS011;24910;53.248;-6.134;2022-10-29T00:01:33;29.50;;;4.72;;
38683;SDS011;24910;53.248;-6.134;2022-10-29T00:04:02;42.80;;;5.30;;
38683;SDS011;24910;53.248;-6.134;2022-10-29T00:06:33;34.38;;;5.25;;
38683;SDS011;24910;53.248;-6.134;2022-10-29T00:09:10;29.67;;;4.38;;
38683;SDS011;24910;53.248;-6.134;2022-10-29T00:11:39;27.03;;;5.93;;
38683;SDS011;24910;53.248;-6.134;2022-10-29T00:14:08;33.25;;;4.95;;
38683;SDS011;24910;53.248;-6.134;2022-10-29T00:16:39;38.03;;;5.47;;
38683;SDS011;24910;53.248;-6.134;2022-10-29T00:19:11;31.58;;;4.78;;
38683;SDS011;24910;53.248;-6.134;2022-10-29T00:21:43;28.17;;;4.03;;
38683;SDS011;24910;53.248;-6.134;2022-10-29T00:24:19;38.28;;;4.78;;
38683;SDS011;24910;53.248;-6.134;2022-10-29T00:26:48;34.42;;;4.45;;
38683;SDS011;24910;53.248;-6.134;2022-10-29T00:29:17;32.75;;;4.30;;
38683;SDS011;24910;53.248;-6.134;2022-10-29T00:31:48;33.40;;;4.07;;
38683;SDS011;24910;53.248;-6.134;2022-10-29T00:34:17;29.77;;;4.40;;
38683;SDS011;24910;53.248;-6.134;2022-10-29T00:36:47;34.47;;;4.68;;
38683;SDS011;24910;53.248;-6.134;2022-10-29T00:39:19;27.35;;;4.55;;
38683;SDS011;24910;53.248;-6.134;2022-10-29T00:41:48;26.42;;;4.20;;
38683;SDS011;24910;53.248;-6.134;2022-10-29T00:44:29;27.92;;;4.30;;
38683;SDS011;24910;53.248;-6.134;2022-10-29T00:47:02;42.53;;;4.63;;
38683;SDS011;24910;53.248;-6.134;2022-10-29T00:49:47;37.28;;;4.50;;
38683;SDS011;24910;53.248;-6.134;2022-10-29T00:52:18;34.35;;;4.80;;
38683;SDS011;24910;53.248;-6.134;2022-10-29T00:54:52;36.90;;;3.95;;
38683;SDS011;24910;53.248;-6.134;2022-10-29T00:57:24;25.77;;;3.70;;
38683;SDS011;24910;53.248;-6.134;2022-10-29T00:59:58;36.13;;;4.82;;
38683;SDS011;24910;53.248;-6.134;2022-10-29T01:02:27;28.65;;;4.30;;
38683;SDS011;24910;53.248;-6.134;2022-10-29T01:04:58;36.75;;;4.20;;
38683;SDS011;24910;53.248;-6.134;2022-10-29T01:07:28;31.55;;;4.60;;
38683;SDS011;24910;53.248;-6.134;2022-10-29T01:09:59;36.13;;;4.35;;
38683;SDS011;24910;53.248;-6.134;2022-10-29T01:12:32;31.50;;;4.28;;
38683;SDS011;24910;53.248;-6.134;2022-10-29T01:15:25;30.83;;;4.63;;
38683;SDS011;24910;53.248;-6.134;2022-10-29T01:18:04;32.17;;;4.57;;
38683;SDS011;24910;53.248;-6.134;2022-10-29T01:23:56;30.53;;;4.30;;
38683;SDS011;24910;53.248;-6.134;2022-10-29T01:26:56;31.88;;;4.10;;
38683;SDS011;24910;53.248;-6.134;2022-10-29T01:29:42;30.87;;;4.57;;
38683;SDS011;24910;53.248;-6.134;2022-10-29T01:32:28;34.35;;;3.85;;
38683;SDS011;24910;53.248;-6.134;2022-10-29T01:35:00;32.70;;;4.25;;
38683;SDS011;24910;53.248;-6.134;2022-10-29T01:37:38;34.20;;;4.60;;
38683;SDS011;24910;53.248;-6.134;2022-10-29T01:40:16;31.00;;;4.25;;
38683;SDS011;24910;53.248;-6.134;2022-10-29T01:42:52;35.58;;;4.40;;
38683;SDS011;24910;53.248;-6.134;2022-10-29T01:45:27;28.33;;;3.67;;
38683;SDS011;24910;53.248;-6.134;2022-10-29T01:48:03;35.75;;;4.35;;
38683;SDS011;24910;53.248;-6.134;2022-10-29T01:50:36;31.30;;;5.47;;
38683;SDS011;24910;53.248;-6.134;2022-10-29T01:53:09;40.17;;;3.67;;
38683;SDS011;24910;53.248;-6.134;2022-10-29T01:55:39;28.17;;;4.03;;
38683;SDS011;24910;53.248;-6.134;2022-10-29T01:58:08;26.00;;;3.90;;
38683;SDS011;24910;53.248;-6.134;2022-10-29T02:00:42;30.77;;;4.10;;
38683;SDS011;24910;53.248;-6.134;2022-10-29T02:03:22;33.03;;;4.55;;
38683;SDS011;24910;53.248;-6.134;2022-10-29T02:05:59;37.80;;;5.68;;
38683;SDS011;24910;53.248;-6.134;2022-10-29T02:08:35;39.40;;;5.00;;
38683;SDS011;24910;53.248;-6.134;2022-10-29T02:11:11;34.45;;;4.60;;
38683;SDS011;24910;53.248;-6.134;2022-10-29T02:13:45;32.85;;;4.40;;
38683;SDS011;24910;53.248;-6.134;2022-10-29T02:16:17;39.92;;;4.70;;
38683;SDS011;24910;53.248;-6.134;2022-10-29T02:18:49;34.75;;;5.50;;
38683;SDS011;24910;53.248;-6.134;2022-10-29T02:21:19;35.30;;;5.18;;
38683;SDS011;24910;53.248;-6.134;2022-10-29T02:23:48;31.15;;;4.88;;
38683;SDS011;24910;53.248;-6.134;2022-10-29T02:26:18;34.50;;;4.68;;
38683;SDS011;24910;53.248;-6.134;2022-10-29T02:28:47;37.17;;;5.13;;
38683;SDS011;24910;53.248;-6.134;2022-10-29T02:31:17;39.97;;;4.63;;
38683;SDS011;24910;53.248;-6.134;2022-10-29T02:33:46;42.45;;;5.15;;
38683;SDS011;24910;53.248;-6.134;2022-10-29T02:36:16;32.15;;;3.85;;
38683;SDS011;24910;53.248;-6.134;2022-10-29T02:38:45;28.02;;;3.67;;
38683;SDS011;24910;53.248;-6.134;2022-10-29T02:41:14;31.40;;;3.90;;
38683;SDS011;24910;53.248;-6.134;2022-10-29T02:43:43;26.67;;;3.35;;
38683;SDS011;24910;53.248;-6.134;2022-10-29T02:46:13;31.13;;;4.65;;
38683;SDS011;24910;53.248;-6.134;2022-10-29T02:48:43;32.08;;;3.97;;
38683;SDS011;24910;53.248;-6.134;2022-10-29T02:51:12;30.50;;;3.70;;
38683;SDS011;24910;53.248;-6.134;2022-10-29T02:53:43;29.08;;;4.03;;
38683;SDS011;24910;53.248;-6.134;2022-10-29T02:56:12;37.13;;;5.30;;
38683;SDS011;24910;53.248;-6.134;2022-10-29T02:58:41;37.53;;;4.30;;
38683;SDS011;24910;53.248;-6.134;2022-10-29T03:01:10;27.60;;;3.75;;
38683;SDS011;24910;53.248;-6.134;2022-10-29T03:03:39;31.10;;;3.70;;
38683;SDS011;24910;53.248;-6.134;2022-10-29T03:06:10;39.80;;;5.22;;
38683;SDS011;24910;53.248;-6.134;2022-10-29T03:08:40;33.60;;;4.30;;
38683;SDS011;24910;53.248;-6.134;2022-10-29T03:11:10;40.92;;;5.82;;
38683;SDS011;24910;53.248;-6.134;2022-10-29T03:13:40;44.50;;;4.43;;
38683;SDS011;24910;53.248;-6.134;2022-10-29T03:16:09;38.17;;;4.90;;
38683;SDS011;24910;53.248;-6.134;2022-10-29T03:18:38;29.42;;;4.00;;
38683;SDS011;24910;53.248;-6.134;2022-10-29T03:21:07;33.70;;;4.50;;
38683;SDS011;24910;53.248;-6.134;2022-10-29T03:23:36;28.83;;;4.03;;
38683;SDS011;24910;53.248;-6.134;2022-10-29T03:26:05;32.30;;;3.80;;
38683;SDS011;24910;53.248;-6.134;2022-10-29T03:28:35;40.88;;;4.35;;
38683;SDS011;24910;53.248;-6.134;2022-10-29T03:31:05;36.27;;;4.60;;
38683;SDS011;24910;53.248;-6.134;2022-10-29T03:33:34;31.65;;;3.85;;
38683;SDS011;24910;53.248;-6.134;2022-10-29T03:36:04;40.17;;;4.28;;
38683;SDS011;24910;53.248;-6.134;2022-10-29T03:38:34;40.63;;;4.13;;
38683;SDS011;24910;53.248;-6.134;2022-10-29T03:41:03;32.75;;;4.40;;
38683;SDS011;24910;53.248;-6.134;2022-10-29T03:43:38;38.45;;;4.97;;
38683;SDS011;24910;53.248;-6.134;2022-10-29T03:46:08;34.58;;;4.30;;
38683;SDS011;24910;53.248;-6.134;2022-10-29T03:48:41;31.15;;;4.00;;
38683;SDS011;24910;53.248;-6.134;2022-10-29T03:51:11;36.95;;;4.75;;
38683;SDS011;24910;53.248;-6.134;2022-10-29T03:53:40;45.33;;;4.47;;
38683;SDS011;24910;53.248;-6.134;2022-10-29T03:56:09;41.63;;;4.35;;
38683;SDS011;24910;53.248;-6.134;2022-10-29T03:58:40;37.45;;;3.90;;
38683;SDS011;24910;53.248;-6.134;2022-10-29T04:01:09;39.17;;;4.87;;
38683;SDS011;24910;53.248;-6.134;2022-10-29T04:03:38;38.63;;;4.13;;
38683;SDS011;24910;53.248;-6.134;2022-10-29T04:06:09;44.47;;;5.03;;
38683;SDS011;24910;53.248;-6.134;2022-10-29T04:08:39;34.72;;;4.15;;
38683;SDS011;24910;53.248;-6.134;2022-10-29T04:11:09;47.67;;;5.03;;
38683;SDS011;24910;53.248;-6.134;2022-10-29T04:13:40;39.25;;;5.38;;
38683;SDS011;24910;53.248;-6.134;2022-10-29T04:16:09;37.13;;;5.82;;
38683;SDS011;24910;53.248;-6.134;2022-10-29T04:18:38;42.15;;;4.28;;
38683;SDS011;24910;53.248;-6.134;2022-10-29T04:21:07;35.30;;;4.25;;
38683;SDS011;24910;53.248;-6.134;2022-10-29T04:23:56;35.05;;;4.70;;
38683;SDS011;24910;53.248;-6.134;2022-10-29T04:26:45;46.63;;;5.20;;
38683;SDS011;24910;53.248;-6.134;2022-10-29T04:29:36;38.13;;;4.93;;
38683;SDS011;24910;53.248;-6.134;2022-10-29T04:32:05;39.67;;;4.72;;
38683;SDS011;24910;53.248;-6.134;2022-10-29T04:34:34;43.63;;;4.78;;
38683;SDS011;24910;53.248;-6.134;2022-10-29T04:37:03;46.67;;;4.40;;
38683;SDS011;24910;53.248;-6.134;2022-10-29T04:39:32;36.95;;;4.55;;
38683;SDS011;24910;53.248;-6.134;2022-10-29T04:42:01;32.22;;;4.47;;
38683;SDS011;24910;53.248;-6.134;2022-10-29T04:44:30;43.55;;;4.45;;
38683;SDS011;24910;53.248;-6.134;2022-10-29T04:47:00;30.17;;;4.05;;
38683;SDS011;24910;53.248;-6.134;2022-10-29T04:49:29;44.85;;;4.60;;
38683;SDS011;24910;53.248;-6.134;2022-10-29T04:51:58;39.83;;;5.30;;
38683;SDS011;24910;53.248;-6.134;2022-10-29T04:54:28;29.30;;;4.10;;
38683;SDS011;24910;53.248;-6.134;2022-10-29T04:56:57;25.52;;;4.28;;
38683;SDS011;24910;53.248;-6.134;2022-10-29T04:59:26;35.47;;;3.67;;
38683;SDS011;24910;53.248;-6.134;2022-10-29T05:01:55;34.75;;;4.57;;
38683;SDS011;24910;53.248;-6.134;2022-10-29T05:04:25;27.80;;;4.50;;
38683;SDS011;24910;53.248;-6.134;2022-10-29T05:06:55;31.58;;;3.92;;
38683;SDS011;24910;53.248;-6.134;2022-10-29T05:09:24;36.13;;;4.30;;
38683;SDS011;24910;53.248;-6.134;2022-10-29T05:11:53;37.30;;;4.90;;
38683;SDS011;24910;53.248;-6.134;2022-10-29T05:14:22;34.20;;;3.95;;
38683;SDS011;24910;53.248;-6.134;2022-10-29T05:16:51;37.47;;;4.72;;
38683;SDS011;24910;53.248;-6.134;2022-10-29T05:19:20;36.05;;;4.80;;
38683;SDS011;24910;53.248;-6.134;2022-10-29T05:21:51;38.58;;;4.40;;
38683;SDS011;24910;53.248;-6.134;2022-10-29T05:24:20;30.63;;;4.18;;
38683;SDS011;24910;53.248;-6.134;2022-10-29T05:26:49;37.20;;;4.63;;
38683;SDS011;24910;53.248;-6.134;2022-10-29T05:29:18;31.17;;;4.40;;
38683;SDS011;24910;53.248;-6.134;2022-10-29T05:31:51;35.28;;;4.55;;
38683;SDS011;24910;53.248;-6.134;2022-10-29T05:34:20;31.45;;;4.38;;
38683;SDS011;24910;53.248;-6.134;2022-10-29T05:36:51;34.38;;;4.93;;
38683;SDS011;24910;53.248;-6.134;2022-10-29T05:39:20;33.65;;;4.45;;
38683;SDS011;24910;53.248;-6.134;2022-10-29T05:41:49;37.55;;;4.13;;
38683;SDS011;24910;53.248;-6.134;2022-10-29T05:44:18;40.20;;;4.15;;
38683;SDS011;24910;53.248;-6.134;2022-10-29T05:46:47;28.27;;;3.80;;
38683;SDS011;24910;53.248;-6.134;2022-10-29T05:49:26;32.20;;;3.75;;
38683;SDS011;24910;53.248;-6.134;2022-10-29T05:51:56;29.30;;;4.28;;
38683;SDS011;24910;53.248;-6.134;2022-10-29T05:54:28;34.13;;;3.40;;
38683;SDS011;24910;53.248;-6.134;2022-10-29T05:56:57;35.25;;;3.95;;
38683;SDS011;24910;53.248;-6.134;2022-10-29T05:59:26;35.72;;;4.45;;
38683;SDS011;24910;53.248;-6.134;2022-10-29T06:01:59;34.95;;;4.30;;
38683;SDS011;24910;53.248;-6.134;2022-10-29T06:04:29;43.83;;;4.97;;
38683;SDS011;24910;53.248;-6.134;2022-10-29T06:06:59;40.58;;;4.85;;
38683;SDS011;24910;53.248;-6.134;2022-10-29T06:09:28;36.17;;;3.90;;
38683;SDS011;24910;53.248;-6.134;2022-10-29T06:11:57;33.38;;;4.60;;
38683;SDS011;24910;53.248;-6.134;2022-10-29T06:14:26;51.13;;;4.65;;
38683;SDS011;24910;53.248;-6.134;2022-10-29T06:16:55;34.97;;;4.57;;
38683;SDS011;24910;53.248;-6.134;2022-10-29T06:19:25;37.05;;;4.63;;
38683;SDS011;24910;53.248;-6.134;2022-10-29T06:21:54;43.08;;;4.00;;
38683;SDS011;24910;53.248;-6.134;2022-10-29T06:24:28;42.55;;;4.88;;
38683;SDS011;24910;53.248;-6.134;2022-10-29T06:26:57;27.27;;;4.20;;
38683;SDS011;24910;53.248;-6.134;2022-10-29T06:29:26;36.53;;;4.22;;
38683;SDS011;24910;53.248;-6.134;2022-10-29T06:31:55;41.70;;;4.60;;
38683;SDS011;24910;53.248;-6.134;2022-10-29T06:34:24;35.85;;;4.25;;
38683;SDS011;24910;53.248;-6.134;2022-10-29T06:36:54;31.42;;;3.70;;
38683;SDS011;24910;53.248;-6.134;2022-10-29T06:39:23;31.45;;;4.18;;
38683;SDS011;24910;53.248;-6.134;2022-10-29T06:41:53;37.30;;;4.38;;
38683;SDS011;24910;53.248;-6.134;2022-10-29T06:44:22;27.70;;;3.87;;
38683;SDS011;24910;53.248;-6.134;2022-10-29T06:46:51;39.80;;;4.38;;
38683;SDS011;24910;53.248;-6.134;2022-10-29T06:49:21;38.35;;;3.97;;
38683;SDS011;24910;53.248;-6.134;2022-10-29T06:51:50;40.25;;;4.55;;
38683;SDS011;24910;53.248;-6.134;2022-10-29T06:54:19;35.20;;;4.47;;
38683;SDS011;24910;53.248;-6.134;2022-10-29T06:56:48;30.95;;;4.28;;
38683;SDS011;24910;53.248;-6.134;2022-10-29T06:59:19;29.73;;;4.22;;
38683;SDS011;24910;53.248;-6.134;2022-10-29T07:01:49;27.10;;;4.03;;
38683;SDS011;24910;53.248;-6.134;2022-10-29T07:04:18;31.67;;;4.07;;
38683;SDS011;24910;53.248;-6.134;2022-10-29T07:06:48;35.33;;;4.00;;
38683;SDS011;24910;53.248;-6.134;2022-10-29T07:09:17;31.60;;;3.08;;
38683;SDS011;24910;53.248;-6.134;2022-10-29T07:11:46;32.83;;;3.75;;
38683;SDS011;24910;53.248;-6.134;2022-10-29T07:14:15;26.80;;;3.78;;
38683;SDS011;24910;53.248;-6.134;2022-10-29T07:16:45;25.85;;;4.07;;
38683;SDS011;24910;53.248;-6.134;2022-10-29T07:19:14;35.87;;;4.47;;
38683;SDS011;24910;53.248;-6.134;2022-10-29T07:24:14;29.48;;;5.13;;
38683;SDS011;24910;53.248;-6.134;2022-10-29T07:26:44;21.38;;;3.47;;
38683;SDS011;24910;53.248;-6.134;2022-10-29T07:29:13;30.70;;;4.30;;
38683;SDS011;24910;53.248;-6.134;2022-10-29T07:31:42;29.75;;;4.00;;
38683;SDS011;24910;53.248;-6.134;2022-10-29T07:34:13;25.27;;;3.55;;
38683;SDS011;24910;53.248;-6.134;2022-10-29T07:36:42;28.40;;;4.45;;
38683;SDS011;24910;53.248;-6.134;2022-10-29T07:39:11;25.00;;;4.00;;
38683;SDS011;24910;53.248;-6.134;2022-10-29T07:41:40;15.73;;;3.20;;
38683;SDS011;24910;53.248;-6.134;2022-10-29T07:44:09;30.08;;;3.75;;
38683;SDS011;24910;53.248;-6.134;2022-10-29T07:46:38;14.15;;;3.55;;
38683;SDS011;24910;53.248;-6.134;2022-10-29T07:49:07;24.73;;;3.05;;
38683;SDS011;24910;53.248;-6.134;2022-10-29T07:51:37;16.23;;;2.53;;
38683;SDS011;24910;53.248;-6.134;2022-10-29T07:54:07;11.40;;;1.80;;
38683;SDS011;24910;53.248;-6.134;2022-10-29T07:56:40;16.70;;;2.00;;
38683;SDS011;24910;53.248;-6.134;2022-10-29T07:59:13;22.08;;;3.08;;
38683;SDS011;24910;53.248;-6.134;2022-10-29T08:01:44;22.88;;;2.60;;
38683;SDS011;24910;53.248;-6.134;2022-10-29T08:04:13;21.80;;;2.35;;
38683;SDS011;24910;53.248;-6.134;2022-10-29T08:06:43;15.02;;;2.83;;
38683;SDS011;24910;53.248;-6.134;2022-10-29T08:09:13;24.88;;;3.45;;
38683;SDS011;24910;53.248;-6.134;2022-10-29T08:11:42;19.77;;;2.97;;
38683;SDS011;24910;53.248;-6.134;2022-10-29T08:14:11;28.30;;;3.05;;
38683;SDS011;24910;53.248;-6.134;2022-10-29T08:16:43;20.98;;;2.67;;
38683;SDS011;24910;53.248;-6.134;2022-10-29T08:19:12;50.63;;;4.47;;
38683;SDS011;24910;53.248;-6.134;2022-10-29T08:21:41;26.52;;;2.92;;
38683;SDS011;24910;53.248;-6.134;2022-10-29T08:24:13;25.77;;;2.80;;
38683;SDS011;24910;53.248;-6.134;2022-10-29T08:26:42;30.17;;;3.30;;
38683;SDS011;24910;53.248;-6.134;2022-10-29T08:29:11;19.58;;;2.55;;
38683;SDS011;24910;53.248;-6.134;2022-10-29T08:31:40;22.80;;;2.72;;
38683;SDS011;24910;53.248;-6.134;2022-10-29T08:34:09;26.88;;;2.70;;
38683;SDS011;24910;53.248;-6.134;2022-10-29T08:36:38;27.17;;;3.00;;
38683;SDS011;24910;53.248;-6.134;2022-10-29T08:39:10;27.45;;;2.88;;
38683;SDS011;24910;53.248;-6.134;2022-10-29T08:41:42;20.70;;;2.63;;
38683;SDS011;24910;53.248;-6.134;2022-10-29T08:44:34;21.63;;;2.35;;
38683;SDS011;24910;53.248;-6.134;2022-10-29T08:47:17;23.15;;;2.83;;
38683;SDS011;24910;53.248;-6.134;2022-10-29T08:49:49;30.23;;;3.35;;
38683;SDS011;24910;53.248;-6.134;2022-10-29T08:52:29;22.23;;;3.45;;
38683;SDS011;24910;53.248;-6.134;2022-10-29T08:55:06;36.85;;;2.88;;
38683;SDS011;24910;53.248;-6.134;2022-10-29T08:57:43;18.70;;;2.50;;
38683;SDS011;24910;53.248;-6.134;2022-10-29T09:00:18;25.38;;;2.88;;
38683;SDS011;24910;53.248;-6.134;2022-10-29T09:02:51;17.77;;;2.75;;
38683;SDS011;24910;53.248;-6.134;2022-10-29T09:05:23;32.10;;;3.90;;
38683;SDS011;24910;53.248;-6.134;2022-10-29T09:08:09;17.38;;;2.55;;
38683;SDS011;24910;53.248;-6.134;2022-10-29T09:10:58;19.50;;;2.67;;
38683;SDS011;24910;53.248;-6.134;2022-10-29T09:13:42;27.70;;;2.90;;
38683;SDS011;24910;53.248;-6.134;2022-10-29T09:16:24;19.33;;;2.60;;
38683;SDS011;24910;53.248;-6.134;2022-10-29T09:19:13;24.15;;;3.20;;
38683;SDS011;24910;53.248;-6.134;2022-10-29T09:22:06;19.48;;;3.22;;
38683;SDS011;24910;53.248;-6.134;2022-10-29T09:24:45;20.53;;;2.83;;
38683;SDS011;24910;53.248;-6.134;2022-10-29T09:27:28;15.27;;;2.20;;
38683;SDS011;24910;53.248;-6.134;2022-10-29T09:30:06;11.85;;;1.92;;
38683;SDS011;24910;53.248;-6.134;2022-10-29T09:32:40;17.50;;;2.00;;
38683;SDS011;24910;53.248;-6.134;2022-10-29T09:35:13;14.32;;;2.35;;
38683;SDS011;24910;53.248;-6.134;2022-10-29T09:40:16;18.52;;;1.85;;
38683;SDS011;24910;53.248;-6.134;2022-10-29T09:42:59;19.95;;;2.08;;
38683;SDS011;24910;53.248;-6.134;2022-10-29T09:45:49;23.15;;;3.30;;
38683;SDS011;24910;53.248;-6.134;2022-10-29T09:48:26;20.35;;;2.53;;
38683;SDS011;24910;53.248;-6.134;2022-10-29T09:51:04;27.95;;;2.70;;
38683;SDS011;24910;53.248;-6.134;2022-10-29T09:53:37;25.05;;;2.50;;
38683;SDS011;24910;53.248;-6.134;2022-10-29T09:56:06;15.48;;;2.72;;
38683;SDS011;24910;53.248;-6.134;2022-10-29T09:58:38;21.17;;;2.47;;
38683;SDS011;24910;53.248;-6.134;2022-10-29T10:01:11;17.95;;;3.20;;
38683;SDS011;24910;53.248;-6.134;2022-10-29T10:03:41;15.07;;;1.80;;
38683;SDS011;24910;53.248;-6.134;2022-10-29T10:06:14;18.85;;;2.05;;
38683;SDS011;24910;53.248;-6.134;2022-10-29T10:08:57;10.03;;;2.10;;
38683;SDS011;24910;53.248;-6.134;2022-10-29T10:11:31;9.63;;;1.85;;
38683;SDS011;24910;53.248;-6.134;2022-10-29T10:14:06;12.98;;;2.20;;
38683;SDS011;24910;53.248;-6.134;2022-10-29T10:16:41;16.92;;;2.55;;
38683;SDS011;24910;53.248;-6.134;2022-10-29T10:19:21;6.63;;;2.42;;
38683;SDS011;24910;53.248;-6.134;2022-10-29T10:21:55;7.65;;;2.53;;
38683;SDS011;24910;53.248;-6.134;2022-10-29T10:24:28;6.82;;;2.35;;
38683;SDS011;24910;53.248;-6.134;2022-10-29T10:26:59;4.55;;;1.90;;
38683;SDS011;24910;53.248;-6.134;2022-10-29T10:29:29;6.60;;;2.78;;
38683;SDS011;24910;53.248;-6.134;2022-10-29T10:32:08;5.40;;;2.20;;
38683;SDS011;24910;53.248;-6.134;2022-10-29T10:34:41;6.40;;;2.45;;
38683;SDS011;24910;53.248;-6.134;2022-10-29T10:37:13;10.48;;;6.00;;
38683;SDS011;24910;53.248;-6.134;2022-10-29T10:39:46;4.82;;;2.03;;
38683;SDS011;24910;53.248;-6.134;2022-10-29T10:42:19;7.20;;;2.95;;
38683;SDS011;24910;53.248;-6.134;2022-10-29T10:44:52;10.10;;;3.45;;
38683;SDS011;24910;53.248;-6.134;2022-10-29T10:47:26;10.63;;;3.35;;
38683;SDS011;24910;53.248;-6.134;2022-10-29T10:50:08;9.73;;;3.95;;
38683;SDS011;24910;53.248;-6.134;2022-10-29T10:52:39;13.82;;;7.00;;
38683;SDS011;24910;53.248;-6.134;2022-10-29T10:55:09;21.27;;;6.07;;
38683;SDS011;24910;53.248;-6.134;2022-10-29T10:57:50;35.23;;;6.17;;
38683;SDS011;24910;53.248;-6.134;2022-10-29T11:00:27;34.95;;;5.63;;
38683;SDS011;24910;53.248;-6.134;2022-10-29T11:03:11;34.60;;;6.80;;
38683;SDS011;24910;53.248;-6.134;2022-10-29T11:05:43;39.80;;;6.95;;
38683;SDS011;24910;53.248;-6.134;2022-10-29T11:08:18;41.22;;;7.47;;
38683;SDS011;24910;53.248;-6.134;2022-10-29T11:10:52;53.13;;;7.50;;
38683;SDS011;24910;53.248;-6.134;2022-10-29T11:13:25;49.60;;;6.93;;
38683;SDS011;24910;53.248;-6.134;2022-10-29T11:16:00;53.55;;;7.00;;
38683;SDS011;24910;53.248;-6.134;2022-10-29T11:18:35;57.38;;;7.55;;
38683;SDS011;24910;53.248;-6.134;2022-10-29T11:21:08;51.63;;;7.75;;
38683;SDS011;24910;53.248;-6.134;2022-10-29T11:23:45;47.15;;;7.90;;
38683;SDS011;24910;53.248;-6.134;2022-10-29T11:26:24;53.97;;;7.30;;
38683;SDS011;24910;53.248;-6.134;2022-10-29T11:28:58;65.60;;;8.25;;
38683;SDS011;24910;53.248;-6.134;2022-10-29T11:31:35;54.08;;;6.88;;
38683;SDS011;24910;53.248;-6.134;2022-10-29T11:34:12;47.92;;;7.47;;
38683;SDS011;24910;53.248;-6.134;2022-10-29T11:36:47;55.15;;;7.25;;
38683;SDS011;24910;53.248;-6.134;2022-10-29T11:39:24;50.17;;;7.50;;
38683;SDS011;24910;53.248;-6.134;2022-10-29T11:41:55;55.40;;;11.68;;
38683;SDS011;24910;53.248;-6.134;2022-10-29T11:44:26;48.83;;;7.55;;
38683;SDS011;24910;53.248;-6.134;2022-10-29T11:47:04;54.63;;;7.70;;
38683;SDS011;24910;53.248;-6.134;2022-10-29T11:49:54;55.53;;;7.90;;
38683;SDS011;24910;53.248;-6.134;2022-10-29T11:52:34;46.72;;;7.50;;
38683;SDS011;24910;53.248;-6.134;2022-10-29T11:55:22;51.75;;;7.32;;
38683;SDS011;24910;53.248;-6.134;2022-10-29T11:57:58;44.28;;;7.38;;
38683;SDS011;24910;53.248;-6.134;2022-10-29T12:00:33;50.15;;;7.07;;
38683;SDS011;24910;53.248;-6.134;2022-10-29T12:03:42;61.67;;;7.53;;
38683;SDS011;24910;53.248;-6.134;2022-10-29T12:06:24;42.42;;;6.40;;
38683;SDS011;24910;53.248;-6.134;2022-10-29T12:12:08;38.53;;;7.20;;
38683;SDS011;24910;53.248;-6.134;2022-10-29T12:14:43;41.08;;;9.02;;
38683;SDS011;24910;53.248;-6.134;2022-10-29T12:17:19;30.73;;;5.75;;
38683;SDS011;24910;53.248;-6.134;2022-10-29T12:19:57;34.47;;;7.53;;
38683;SDS011;24910;53.248;-6.134;2022-10-29T12:22:34;30.27;;;8.45;;
38683;SDS011;24910;53.248;-6.134;2022-10-29T12:25:13;27.77;;;5.78;;
38683;SDS011;24910;53.248;-6.134;2022-10-29T12:27:53;23.67;;;5.40;;
38683;SDS011;24910;53.248;-6.134;2022-10-29T12:30:33;29.02;;;6.53;;
38683;SDS011;24910;53.248;-6.134;2022-10-29T12:33:06;30.80;;;8.65;;
38683;SDS011;24910;53.248;-6.134;2022-10-29T12:35:46;26.02;;;5.05;;
38683;SDS011;24910;53.248;-6.134;2022-10-29T12:38:22;22.27;;;4.97;;
38683;SDS011;24910;53.248;-6.134;2022-10-29T12:41:02;18.80;;;4.03;;
38683;SDS011;24910;53.248;-6.134;2022-10-29T12:43:35;21.60;;;4.65;;
38683;SDS011;24910;53.248;-6.134;2022-10-29T12:46:09;22.65;;;4.38;;
38683;SDS011;24910;53.248;-6.134;2022-10-29T12:48:52;27.90;;;5.65;;
38683;SDS011;24910;53.248;-6.134;2022-10-29T12:51:30;25.10;;;5.25;;
38683;SDS011;24910;53.248;-6.134;2022-10-29T12:54:23;22.17;;;3.65;;
38683;SDS011;24910;53.248;-6.134;2022-10-29T12:57:03;30.63;;;4.38;;
38683;SDS011;24910;53.248;-6.134;2022-10-29T12:59:34;25.55;;;3.88;;
38683;SDS011;24910;53.248;-6.134;2022-10-29T13:02:17;23.35;;;4.00;;
38683;SDS011;24910;53.248;-6.134;2022-10-29T13:05:11;30.00;;;4.13;;
38683;SDS011;24910;53.248;-6.134;2022-10-29T13:11:01;27.48;;;4.57;;
38683;SDS011;24910;53.248;-6.134;2022-10-29T13:13:52;30.40;;;5.07;;
38683;SDS011;24910;53.248;-6.134;2022-10-29T13:16:26;28.73;;;4.80;;
38683;SDS011;24910;53.248;-6.134;2022-10-29T13:19:02;26.95;;;4.65;;
38683;SDS011;24910;53.248;-6.134;2022-10-29T13:22:02;21.55;;;3.88;;
38683;SDS011;24910;53.248;-6.134;2022-10-29T13:27:53;22.02;;;4.10;;
38683;SDS011;24910;53.248;-6.134;2022-10-29T13:30:23;31.30;;;5.07;;
38683;SDS011;24910;53.248;-6.134;2022-10-29T13:32:56;33.45;;;5.63;;
38683;SDS011;24910;53.248;-6.134;2022-10-29T13:35:38;30.85;;;4.07;;
38683;SDS011;24910;53.248;-6.134;2022-10-29T13:38:09;39.53;;;5.78;;
38683;SDS011;24910;53.248;-6.134;2022-10-29T13:43:50;33.80;;;5.28;;
38683;SDS011;24910;53.248;-6.134;2022-10-29T13:46:24;31.63;;;4.63;;
38683;SDS011;24910;53.248;-6.134;2022-10-29T13:49:08;44.88;;;5.88;;
38683;SDS011;24910;53.248;-6.134;2022-10-29T13:51:41;34.05;;;5.05;;
38683;SDS011;24910;53.248;-6.134;2022-10-29T13:54:18;33.10;;;5.57;;
38683;SDS011;24910;53.248;-6.134;2022-10-29T13:56:55;34.40;;;5.07;;
38683;SDS011;24910;53.248;-6.134;2022-10-29T13:59:29;28.13;;;5.07;;
38683;SDS011;24910;53.248;-6.134;2022-10-29T14:02:15;25.83;;;4.47;;
38683;SDS011;24910;53.248;-6.134;2022-10-29T14:07:29;28.65;;;4.75;;
38683;SDS011;24910;53.248;-6.134;2022-10-29T14:10:06;34.05;;;5.32;;
38683;SDS011;24910;53.248;-6.134;2022-10-29T14:12:44;27.30;;;4.45;;
38683;SDS011;24910;53.248;-6.134;2022-10-29T14:15:17;33.70;;;4.25;;
38683;SDS011;24910;53.248;-6.134;2022-10-29T14:17:46;31.90;;;4.40;;
38683;SDS011;24910;53.248;-6.134;2022-10-29T14:20:20;22.95;;;3.92;;
38683;SDS011;24910;53.248;-6.134;2022-10-29T14:22:52;15.05;;;3.15;;
38683;SDS011;24910;53.248;-6.134;2022-10-29T14:25:29;22.38;;;3.80;;
38683;SDS011;24910;53.248;-6.134;2022-10-29T14:28:07;17.25;;;3.05;;
38683;SDS011;24910;53.248;-6.134;2022-10-29T14:30:57;20.30;;;2.95;;
38683;SDS011;24910;53.248;-6.134;2022-10-29T14:35:59;27.85;;;3.80;;
38683;SDS011;24910;53.248;-6.134;2022-10-29T14:38:35;16.48;;;2.92;;
38683;SDS011;24910;53.248;-6.134;2022-10-29T14:41:07;18.30;;;3.13;;
38683;SDS011;24910;53.248;-6.134;2022-10-29T14:43:37;17.50;;;3.30;;
38683;SDS011;24910;53.248;-6.134;2022-10-29T14:46:20;19.60;;;3.20;;
38683;SDS011;24910;53.248;-6.134;2022-10-29T14:48:57;19.92;;;2.95;;
38683;SDS011;24910;53.248;-6.134;2022-10-29T14:51:29;17.85;;;3.30;;
38683;SDS011;24910;53.248;-6.134;2022-10-29T14:54:05;22.70;;;3.28;;
38683;SDS011;24910;53.248;-6.134;2022-10-29T14:56:37;15.50;;;3.05;;
38683;SDS011;24910;53.248;-6.134;2022-10-29T14:59:13;18.38;;;3.20;;
38683;SDS011;24910;53.248;-6.134;2022-10-29T15:01:49;18.27;;;3.00;;
38683;SDS011;24910;53.248;-6.134;2022-10-29T15:04:27;25.10;;;3.20;;
38683;SDS011;24910;53.248;-6.134;2022-10-29T15:07:14;17.45;;;3.42;;
38683;SDS011;24910;53.248;-6.134;2022-10-29T15:10:01;20.92;;;3.58;;
38683;SDS011;24910;53.248;-6.134;2022-10-29T15:12:43;26.42;;;3.75;;
38683;SDS011;24910;53.248;-6.134;2022-10-29T15:15:20;16.80;;;2.92;;
38683;SDS011;24910;53.248;-6.134;2022-10-29T15:17:54;20.17;;;3.35;;
38683;SDS011;24910;53.248;-6.134;2022-10-29T15:20:29;14.13;;;3.45;;
38683;SDS011;24910;53.248;-6.134;2022-10-29T15:23:03;18.60;;;3.92;;
38683;SDS011;24910;53.248;-6.134;2022-10-29T15:25:33;23.02;;;3.85;;